Wetterdaten: Woche 23.07.01 - 29.07.01 (KW30)
Datum Zeit Temperatur Luftfeuchte Luftdruck Regenmenge Wind Richtung Taupunkt Windchill
23.07.2001 00:00 14.8 C 83 % 1012.8 hPa 0.0 l/m 2.2 km/h (1 Bft) O-SO 12.0 C 14.8 C
23.07.2001 01:00 14.1 C 86 % 1012.8 hPa 0.0 l/m 0.9 km/h (0 Bft) O 11.7 C 14.1 C
23.07.2001 02:00 13.5 C 88 % 1012.8 hPa 0.0 l/m 1.6 km/h (1 Bft) O-SO 11.6 C 13.5 C
23.07.2001 03:00 12.8 C 92 % 1012.8 hPa 0.0 l/m 0.5 km/h (0 Bft) O-SO 11.5 C 12.8 C
23.07.2001 04:00 12.3 C 93 % 1012.8 hPa 0.0 l/m 0.0 km/h (0 Bft) N 11.2 C 12.3 C
23.07.2001 05:00 11.7 C 95 % 1012.8 hPa 0.0 l/m 0.0 km/h (0 Bft) N 11.0 C 11.7 C
23.07.2001 06:00 12.0 C 95 % 1012.8 hPa 0.0 l/m 0.0 km/h (0 Bft) N 11.2 C 12.0 C
23.07.2001 07:00 13.3 C 93 % 1012.8 hPa 0.0 l/m 0.0 km/h (0 Bft) N 12.2 C 13.3 C
23.07.2001 08:00 15.8 C 86 % 1012.8 hPa 0.0 l/m 0.2 km/h (0 Bft) W 13.4 C 15.8 C
23.07.2001 09:00 19.1 C 70 % 1012.5 hPa 0.0 l/m 0.0 km/h (0 Bft) N 13.4 C 19.1 C
23.07.2001 10:00 20.8 C 64 % 1011.8 hPa 0.0 l/m 0.1 km/h (0 Bft) W-NW 13.8 C 20.8 C
23.07.2001 11:00 23.6 C 55 % 1011.8 hPa 0.0 l/m 1.2 km/h (1 Bft) W 14.1 C 23.6 C
23.07.2001 12:00 25.8 C 50 % 1011.3 hPa 0.0 l/m 2.8 km/h (1 Bft) O-SO 14.4 C 25.8 C
23.07.2001 13:00 28.1 C 47 % 1010.8 hPa 0.0 l/m 10.3 km/h (2 Bft) O-SO 15.5 C 28.1 C
23.07.2001 14:00 28.6 C 41 % 1010.1 hPa 0.0 l/m 10.7 km/h (2 Bft) O-SO 14.1 C 28.6 C
23.07.2001 15:00 28.0 C 41 % 1009.7 hPa 0.0 l/m 9.0 km/h (2 Bft) O-SO 13.5 C 28.0 C
23.07.2001 16:00 28.0 C 40 % 1008.8 hPa 0.0 l/m 7.5 km/h (2 Bft) O-SO 13.3 C 28.0 C
23.07.2001 17:00 27.5 C 42 % 1008.7 hPa 0.0 l/m 10.1 km/h (2 Bft) O-SO 13.4 C 27.5 C
23.07.2001 18:00 24.2 C 45 % 1009.3 hPa 0.0 l/m 6.6 km/h (2 Bft) NW 11.4 C 24.2 C
23.07.2001 19:00 20.1 C 67 % 1010.6 hPa 1.3 l/m 6.6 km/h (2 Bft) NW 13.3 C 20.1 C
23.07.2001 20:00 17.2 C 93 % 1012.2 hPa 3.6 l/m 2.1 km/h (1 Bft) O-SO 16.1 C 17.2 C
23.07.2001 21:00 17.1 C 95 % 1012.8 hPa 7.4 l/m 0.0 km/h (0 Bft) N 16.4 C 17.1 C
23.07.2001 22:00 17.0 C 96 % 1011.9 hPa 1.6 l/m 0.0 km/h (0 Bft) N 16.3 C 17.0 C
23.07.2001 23:00 16.3 C 95 % 1011.5 hPa 0.0 l/m 0.3 km/h (0 Bft) O-SO 15.6 C 16.3 C
24.07.2001 00:00 16.3 C 96 % 1010.8 hPa 0.0 l/m 0.7 km/h (0 Bft) SO 15.7 C 16.3 C
24.07.2001 01:00 16.4 C 96 % 1010.8 hPa 0.0 l/m 0.0 km/h (0 Bft) N 15.8 C 16.4 C
24.07.2001 02:00 16.5 C 96 % 1010.8 hPa 0.0 l/m 0.0 km/h (0 Bft) N 15.9 C 16.5 C
24.07.2001 03:00 16.4 C 96 % 1010.8 hPa 0.0 l/m 0.0 km/h (0 Bft) N 15.8 C 16.4 C
24.07.2001 04:00 16.0 C 96 % 1010.8 hPa 0.0 l/m 0.0 km/h (0 Bft) N 15.4 C 16.0 C
24.07.2001 05:00 15.9 C 96 % 1010.8 hPa 0.0 l/m 0.0 km/h (0 Bft) N 15.4 C 15.9 C
24.07.2001 06:00 15.8 C 96 % 1010.8 hPa 0.0 l/m 0.0 km/h (0 Bft) N 15.1 C 15.8 C
24.07.2001 07:00 15.8 C 95 % 1011.8 hPa 0.0 l/m 0.0 km/h (0 Bft) N 15.0 C 15.8 C
24.07.2001 08:00 16.2 C 91 % 1011.8 hPa 0.0 l/m 0.4 km/h (0 Bft) NW 14.8 C 16.2 C
24.07.2001 09:00 17.2 C 88 % 1011.8 hPa 0.0 l/m 0.2 km/h (0 Bft) W-NW 15.1 C 17.2 C
24.07.2001 10:00 18.2 C 82 % 1011.8 hPa 0.0 l/m 0.0 km/h (0 Bft) N 15.0 C 18.2 C
24.07.2001 11:00 19.7 C 75 % 1011.8 hPa 0.0 l/m 0.0 km/h (0 Bft) N 15.2 C 19.7 C
24.07.2001 12:00 20.9 C 70 % 1011.8 hPa 0.0 l/m 0.5 km/h (0 Bft) W-NW 15.2 C 20.9 C
24.07.2001 13:00 22.5 C 66 % 1011.3 hPa 0.0 l/m 2.4 km/h (1 Bft) W-NW 15.7 C 22.5 C
24.07.2001 14:00 24.3 C 62 % 1010.8 hPa 0.0 l/m 1.6 km/h (1 Bft) W 16.6 C 24.3 C
24.07.2001 15:00 25.0 C 61 % 1010.8 hPa 0.0 l/m 2.8 km/h (1 Bft) W 16.9 C 25.0 C
24.07.2001 16:00 25.6 C 59 % 1010.8 hPa 0.0 l/m 4.8 km/h (1 Bft) NW 17.0 C 25.6 C
24.07.2001 17:00 24.5 C 64 % 1010.4 hPa 0.0 l/m 3.5 km/h (1 Bft) O-SO 17.3 C 24.5 C
24.07.2001 18:00 24.3 C 68 % 1010.8 hPa 0.0 l/m 1.6 km/h (1 Bft) O-SO 18.0 C 24.3 C
24.07.2001 19:00 23.4 C 68 % 1010.8 hPa 0.0 l/m 1.0 km/h (0 Bft) O 17.1 C 23.4 C
24.07.2001 20:00 21.7 C 69 % 1010.8 hPa 0.0 l/m 0.0 km/h (0 Bft) N 15.8 C 21.7 C
24.07.2001 21:00 19.5 C 77 % 1011.1 hPa 0.0 l/m 0.0 km/h (0 Bft) N 15.3 C 19.5 C
24.07.2001 22:00 17.6 C 87 % 1011.8 hPa 0.0 l/m 0.4 km/h (0 Bft) O 15.4 C 17.6 C
24.07.2001 23:00 16.5 C 90 % 1011.8 hPa 0.0 l/m 1.5 km/h (1 Bft) O 14.9 C 16.5 C
25.07.2001 00:00 15.9 C 93 % 1011.8 hPa 0.0 l/m 0.0 km/h (0 Bft) N 14.8 C 15.9 C
25.07.2001 01:00 15.6 C 94 % 1011.8 hPa 0.0 l/m 0.0 km/h (0 Bft) N 14.6 C 15.6 C
25.07.2001 02:00 15.1 C 94 % 1011.8 hPa 0.0 l/m 0.2 km/h (0 Bft) O 14.2 C 15.1 C
25.07.2001 03:00 14.3 C 95 % 1011.9 hPa 0.0 l/m 1.2 km/h (1 Bft) O 13.5 C 14.3 C
25.07.2001 04:00 14.2 C 95 % 1012.1 hPa 0.0 l/m 0.6 km/h (0 Bft) O 13.3 C 14.2 C
25.07.2001 05:00 13.5 C 95 % 1011.8 hPa 0.0 l/m 0.0 km/h (0 Bft) N 12.6 C 13.5 C
25.07.2001 06:00 13.9 C 96 % 1012.5 hPa 0.0 l/m 0.0 km/h (0 Bft) N 13.3 C 13.9 C
25.07.2001 07:00 14.9 C 94 % 1011.8 hPa 0.0 l/m 0.0 km/h (0 Bft) N 14.0 C 14.9 C
25.07.2001 08:00 16.2 C 89 % 1011.8 hPa 0.0 l/m 0.0 km/h (0 Bft) N 14.5 C 16.2 C
25.07.2001 09:00 18.9 C 79 % 1011.8 hPa 0.0 l/m 0.0 km/h (0 Bft) N 15.1 C 18.9 C
25.07.2001 10:00 22.7 C 68 % 1011.8 hPa 0.0 l/m 7.6 km/h (2 Bft) O-SO 16.5 C 22.7 C
25.07.2001 11:00 25.0 C 58 % 1011.8 hPa 0.0 l/m 5.3 km/h (1 Bft) O-NO 16.2 C 25.0 C
25.07.2001 12:00 26.9 C 53 % 1011.8 hPa 0.0 l/m 8.4 km/h (2 Bft) O-SO 16.3 C 26.9 C
25.07.2001 13:00 27.7 C 45 % 1011.5 hPa 0.0 l/m 9.8 km/h (2 Bft) NO 14.8 C 27.7 C
25.07.2001 14:00 28.6 C 40 % 1010.8 hPa 0.0 l/m 14.5 km/h (3 Bft) O-SO 13.6 C 28.6 C
25.07.2001 15:00 29.5 C 38 % 1010.8 hPa 0.0 l/m 12.3 km/h (3 Bft) O-SO 13.6 C 29.5 C
25.07.2001 16:00 29.7 C 38 % 1010.8 hPa 0.0 l/m 12.6 km/h (3 Bft) O-SO 13.7 C 29.7 C
25.07.2001 17:00 29.4 C 37 % 1010.8 hPa 0.0 l/m 3.4 km/h (1 Bft) O 13.1 C 29.4 C
25.07.2001 18:00 28.6 C 39 % 1009.8 hPa 0.0 l/m 1.2 km/h (1 Bft) O-NO 13.3 C 28.6 C
25.07.2001 19:00 27.5 C 43 % 1010.7 hPa 0.0 l/m 0.7 km/h (0 Bft) NO 13.7 C 27.5 C
25.07.2001 20:00 25.4 C 51 % 1010.8 hPa 0.0 l/m 1.3 km/h (1 Bft) O-SO 14.6 C 25.4 C
25.07.2001 21:00 22.1 C 65 % 1011.1 hPa 0.0 l/m 1.5 km/h (1 Bft) O-SO 15.1 C 22.1 C
25.07.2001 22:00 20.2 C 71 % 1011.8 hPa 0.0 l/m 0.0 km/h (0 Bft) N 14.7 C 20.2 C
25.07.2001 23:00 18.5 C 79 % 1011.8 hPa 0.0 l/m 0.0 km/h (0 Bft) N 14.7 C 18.5 C
26.07.2001 00:00 17.5 C 82 % 1012.0 hPa 0.0 l/m 0.8 km/h (0 Bft) O-SO 14.4 C 17.5 C
26.07.2001 01:00 16.3 C 86 % 1012.8 hPa 0.0 l/m 0.4 km/h (0 Bft) N 13.9 C 16.3 C
26.07.2001 02:00 15.6 C 89 % 1012.7 hPa 0.0 l/m 0.0 km/h (0 Bft) N 13.8 C 15.6 C
26.07.2001 03:00 15.3 C 91 % 1011.8 hPa 0.0 l/m 2.0 km/h (1 Bft) O-SO 13.8 C 15.3 C
26.07.2001 04:00 14.7 C 92 % 1011.8 hPa 0.0 l/m 1.5 km/h (1 Bft) O-SO 13.4 C 14.7 C
26.07.2001 05:00 14.3 C 93 % 1011.8 hPa 0.0 l/m 0.7 km/h (0 Bft) O-SO 13.1 C 14.3 C
26.07.2001 06:00 14.3 C 93 % 1012.2 hPa 0.0 l/m 0.3 km/h (0 Bft) O 13.2 C 14.3 C
26.07.2001 07:00 15.6 C 90 % 1012.8 hPa 0.0 l/m 1.1 km/h (1 Bft) O-SO 14.0 C 15.6 C
26.07.2001 08:00 17.2 C 84 % 1012.8 hPa 0.0 l/m 0.0 km/h (0 Bft) N 14.5 C 17.2 C
26.07.2001 09:00 19.9 C 74 % 1012.8 hPa 0.0 l/m 0.0 km/h (0 Bft) N 15.1 C 19.9 C
26.07.2001 10:00 22.8 C 63 % 1012.8 hPa 0.0 l/m 1.1 km/h (1 Bft) NO 15.5 C 22.8 C
26.07.2001 11:00 25.0 C 57 % 1012.8 hPa 0.0 l/m 4.7 km/h (1 Bft) O 15.9 C 25.0 C
26.07.2001 12:00 27.0 C 51 % 1012.3 hPa 0.0 l/m 10.8 km/h (2 Bft) O-SO 15.8 C 27.0 C
26.07.2001 13:00 27.9 C 47 % 1011.8 hPa 0.0 l/m 14.1 km/h (3 Bft) O-SO 15.4 C 27.9 C
26.07.2001 14:00 28.8 C 43 % 1011.6 hPa 0.0 l/m 12.5 km/h (3 Bft) O-SO 14.9 C 28.8 C
26.07.2001 15:00 29.5 C 37 % 1010.9 hPa 0.0 l/m 8.4 km/h (2 Bft) O-SO 13.1 C 29.5 C
26.07.2001 16:00 29.9 C 35 % 1010.8 hPa 0.0 l/m 5.8 km/h (2 Bft) O-SO 12.7 C 29.9 C
26.07.2001 17:00 29.8 C 36 % 1010.8 hPa 0.0 l/m 9.6 km/h (2 Bft) O-SO 13.0 C 29.8 C
26.07.2001 18:00 29.3 C 38 % 1010.8 hPa 0.0 l/m 6.1 km/h (2 Bft) O-SO 13.4 C 29.3 C
26.07.2001 19:00 27.5 C 47 % 1010.8 hPa 0.0 l/m 4.7 km/h (1 Bft) O-SO 14.9 C 27.5 C
26.07.2001 20:00 24.1 C 62 % 1010.8 hPa 0.0 l/m 2.8 km/h (1 Bft) O-SO 16.2 C 24.1 C
26.07.2001 21:00 21.5 C 71 % 1011.3 hPa 0.0 l/m 0.4 km/h (0 Bft) O-SO 16.0 C 21.5 C
26.07.2001 22:00 19.6 C 77 % 1011.8 hPa 0.0 l/m 2.0 km/h (1 Bft) O-SO 15.5 C 19.6 C
26.07.2001 23:00 18.4 C 81 % 1011.8 hPa 0.0 l/m 0.0 km/h (0 Bft) N 15.1 C 18.4 C
27.07.2001 00:00 17.5 C 84 % 1011.8 hPa 0.0 l/m 0.0 km/h (0 Bft) N 14.7 C 17.5 C
27.07.2001 01:00 16.6 C 88 % 1011.8 hPa 0.0 l/m 0.0 km/h (0 Bft) N 14.5 C 16.6 C
27.07.2001 02:00 16.1 C 90 % 1011.8 hPa 0.0 l/m 0.0 km/h (0 Bft) N 14.4 C 16.1 C
27.07.2001 03:00 15.3 C 91 % 1011.8 hPa 0.0 l/m 0.0 km/h (0 Bft) N 13.8 C 15.3 C
27.07.2001 04:00 14.7 C 93 % 1011.8 hPa 0.0 l/m 0.0 km/h (0 Bft) N 13.6 C 14.7 C
27.07.2001 05:00 14.6 C 92 % 1011.8 hPa 0.0 l/m 0.0 km/h (0 Bft) N 13.3 C 14.6 C
27.07.2001 06:00 14.4 C 93 % 1012.5 hPa 0.0 l/m 0.0 km/h (0 Bft) N 13.3 C 14.4 C
27.07.2001 07:00 16.1 C 89 % 1012.8 hPa 0.0 l/m 0.0 km/h (0 Bft) N 14.2 C 16.1 C
27.07.2001 08:00 17.3 C 83 % 1012.8 hPa 0.0 l/m 0.0 km/h (0 Bft) N 14.3 C 17.3 C
27.07.2001 09:00 19.6 C 75 % 1012.8 hPa 0.0 l/m 0.0 km/h (0 Bft) N 15.0 C 19.6 C
27.07.2001 10:00 22.1 C 65 % 1012.8 hPa 0.0 l/m 0.0 km/h (0 Bft) N 15.2 C 22.1 C
27.07.2001 11:00 24.2 C 59 % 1012.8 hPa 0.0 l/m 3.4 km/h (1 Bft) W 15.7 C 24.2 C
27.07.2001 12:00 26.3 C 56 % 1012.7 hPa 0.0 l/m 2.4 km/h (1 Bft) W 16.8 C 26.3 C
27.07.2001 13:00 28.3 C 47 % 1011.8 hPa 0.0 l/m 3.1 km/h (1 Bft) O 15.9 C 28.3 C
27.07.2001 14:00 29.4 C 41 % 1011.8 hPa 0.0 l/m 1.6 km/h (1 Bft) O-NO 14.7 C 29.4 C
27.07.2001 15:00 30.4 C 37 % 1011.7 hPa 0.0 l/m 3.0 km/h (1 Bft) W 13.8 C 30.4 C
27.07.2001 16:00 30.7 C 33 % 1011.2 hPa 0.0 l/m 1.8 km/h (1 Bft) W-NW 12.4 C 30.7 C
27.07.2001 17:00 30.6 C 30 % 1010.8 hPa 0.0 l/m 0.2 km/h (0 Bft) NW 10.8 C 30.6 C
27.07.2001 18:00 28.4 C 39 % 1010.8 hPa 0.0 l/m 3.1 km/h (1 Bft) O-SO 12.7 C 28.4 C
27.07.2001 19:00 27.3 C 46 % 1010.8 hPa 0.0 l/m 0.6 km/h (0 Bft) O-SO 14.7 C 27.3 C
27.07.2001 20:00 25.7 C 50 % 1011.8 hPa 0.0 l/m 1.4 km/h (1 Bft) O-SO 14.5 C 25.7 C
27.07.2001 21:00 22.2 C 68 % 1012.0 hPa 0.0 l/m 3.0 km/h (1 Bft) O-SO 15.9 C 22.2 C
27.07.2001 22:00 20.6 C 72 % 1012.8 hPa 0.0 l/m 2.5 km/h (1 Bft) O-SO 15.4 C 20.6 C
27.07.2001 23:00 19.3 C 77 % 1012.9 hPa 0.0 l/m 2.4 km/h (1 Bft) O-SO 15.2 C 19.3 C
28.07.2001 00:00 18.3 C 82 % 1012.8 hPa 0.0 l/m 2.0 km/h (1 Bft) O-SO 15.1 C 18.3 C
28.07.2001 01:00 17.2 C 86 % 1012.8 hPa 0.0 l/m 1.3 km/h (1 Bft) O-SO 14.8 C 17.2 C
28.07.2001 02:00 16.5 C 89 % 1013.5 hPa 0.0 l/m 2.0 km/h (1 Bft) O-SO 14.6 C 16.5 C
28.07.2001 03:00 15.9 C 91 % 1013.9 hPa 0.0 l/m 0.7 km/h (0 Bft) O-SO 14.4 C 15.9 C
28.07.2001 04:00 15.4 C 92 % 1013.9 hPa 0.0 l/m 1.0 km/h (0 Bft) O-SO 14.0 C 15.4 C
28.07.2001 05:00 15.1 C 93 % 1013.9 hPa 0.0 l/m 1.9 km/h (1 Bft) O-SO 14.0 C 15.1 C
28.07.2001 06:00 15.1 C 93 % 1013.9 hPa 0.0 l/m 0.0 km/h (0 Bft) N 13.9 C 15.1 C
28.07.2001 07:00 16.4 C 89 % 1013.9 hPa 0.0 l/m 0.0 km/h (0 Bft) N 14.6 C 16.4 C
28.07.2001 08:00 17.8 C 84 % 1014.3 hPa 0.0 l/m 0.0 km/h (0 Bft) N 15.0 C 17.8 C
28.07.2001 09:00 19.8 C 76 % 1014.9 hPa 0.0 l/m 0.9 km/h (0 Bft) W 15.5 C 19.8 C
28.07.2001 10:00 22.2 C 70 % 1014.9 hPa 0.0 l/m 0.5 km/h (0 Bft) W 16.3 C 22.2 C
28.07.2001 11:00 24.5 C 62 % 1014.9 hPa 0.0 l/m 2.5 km/h (1 Bft) W 16.8 C 24.5 C
28.07.2001 12:00 26.3 C 55 % 1014.9 hPa 0.0 l/m 2.4 km/h (1 Bft) W 16.4 C 26.3 C
28.07.2001 13:00 27.3 C 50 % 1014.2 hPa 0.0 l/m 1.0 km/h (0 Bft) NW 15.9 C 27.3 C
28.07.2001 14:00 28.7 C 45 % 1013.9 hPa 0.0 l/m 1.2 km/h (1 Bft) W-NW 15.5 C 28.7 C
28.07.2001 15:00 30.2 C 37 % 1013.1 hPa 0.0 l/m 1.3 km/h (1 Bft) NW 14.0 C 30.2 C
28.07.2001 16:00 29.0 C 41 % 1013.1 hPa 0.0 l/m 1.4 km/h (1 Bft) O-SO 14.4 C 29.0 C
28.07.2001 17:00 27.1 C 51 % 1013.4 hPa 0.0 l/m 6.9 km/h (2 Bft) W-NW 16.2 C 27.1 C
28.07.2001 18:00 24.8 C 58 % 1013.9 hPa 0.0 l/m 9.7 km/h (2 Bft) W-NW 16.1 C 24.8 C
28.07.2001 19:00 24.0 C 64 % 1013.9 hPa 0.0 l/m 0.5 km/h (0 Bft) W-SW 16.8 C 24.0 C
28.07.2001 20:00 23.1 C 68 % 1014.8 hPa 0.0 l/m 0.1 km/h (0 Bft) W-NW 16.7 C 23.1 C
28.07.2001 21:00 21.9 C 71 % 1015.4 hPa 0.0 l/m 0.2 km/h (0 Bft) S 16.4 C 21.9 C
28.07.2001 22:00 20.7 C 75 % 1016.0 hPa 0.0 l/m 1.5 km/h (1 Bft) S-SO 16.1 C 20.7 C
28.07.2001 23:00 19.8 C 76 % 1016.0 hPa 0.0 l/m 0.0 km/h (0 Bft) N 15.5 C 19.8 C
29.07.2001 00:00 18.5 C 83 % 1016.0 hPa 0.0 l/m 1.9 km/h (1 Bft) S-SO 15.5 C 18.5 C
29.07.2001 01:00 17.8 C 86 % 1016.5 hPa 0.0 l/m 1.3 km/h (1 Bft) S-SO 15.4 C 17.8 C
29.07.2001 02:00 18.0 C 86 % 1016.3 hPa 0.0 l/m 0.5 km/h (0 Bft) S-SO 15.6 C 18.0 C
29.07.2001 03:00 17.9 C 87 % 1016.4 hPa 0.0 l/m 1.6 km/h (1 Bft) S-SO 15.7 C 17.9 C
29.07.2001 04:00 17.6 C 88 % 1016.8 hPa 0.0 l/m 2.2 km/h (1 Bft) S-SO 15.6 C 17.6 C
29.07.2001 05:00 17.0 C 91 % 1017.0 hPa 0.0 l/m 0.6 km/h (0 Bft) S-SO 15.5 C 17.0 C
29.07.2001 06:00 16.7 C 92 % 1017.0 hPa 0.0 l/m 0.0 km/h (0 Bft) N 15.4 C 16.7 C
29.07.2001 07:00 17.8 C 88 % 1017.0 hPa 0.0 l/m 0.0 km/h (0 Bft) N 15.9 C 17.8 C
29.07.2001 08:00 18.9 C 84 % 1017.0 hPa 0.0 l/m 0.0 km/h (0 Bft) N 16.1 C 18.9 C
29.07.2001 09:00 20.7 C 78 % 1017.3 hPa 0.0 l/m 0.1 km/h (0 Bft) W-SW 16.7 C 20.7 C
29.07.2001 10:00 22.6 C 70 % 1017.0 hPa 0.0 l/m 0.8 km/h (0 Bft) W 16.9 C 22.6 C
29.07.2001 11:00 24.5 C 64 % 1017.0 hPa 0.0 l/m 1.9 km/h (1 Bft) W-NW 17.2 C 24.5 C
29.07.2001 12:00 26.4 C 56 % 1017.0 hPa 0.0 l/m 3.3 km/h (1 Bft) O-SO 16.9 C 26.4 C
29.07.2001 13:00 27.2 C 55 % 1016.0 hPa 0.0 l/m 0.8 km/h (0 Bft) S-SW 17.3 C 27.2 C
29.07.2001 14:00 25.8 C 59 % 1016.0 hPa 0.0 l/m 1.4 km/h (1 Bft) W-NW 17.0 C 25.8 C
29.07.2001 15:00 26.0 C 61 % 1016.0 hPa 0.0 l/m 4.5 km/h (1 Bft) W-NW 17.8 C 26.0 C
29.07.2001 16:00 25.8 C 62 % 1016.0 hPa 0.0 l/m 0.4 km/h (0 Bft) NW 17.9 C 25.8 C
29.07.2001 17:00 27.0 C 52 % 1015.8 hPa 0.0 l/m 2.9 km/h (1 Bft) O-SO 16.4 C 27.0 C
29.07.2001 18:00 27.1 C 52 % 1015.1 hPa 0.0 l/m 7.0 km/h (2 Bft) O-SO 16.3 C 27.1 C
29.07.2001 19:00 25.2 C 60 % 1015.1 hPa 0.0 l/m 2.8 km/h (1 Bft) O-SO 16.9 C 25.2 C
29.07.2001 20:00 24.1 C 67 % 1016.0 hPa 0.0 l/m 2.2 km/h (1 Bft) O-SO 17.5 C 24.1 C
29.07.2001 21:00 21.5 C 77 % 1016.9 hPa 0.0 l/m 0.2 km/h (0 Bft) O-SO 17.2 C 21.5 C
29.07.2001 22:00 20.2 C 81 % 1017.9 hPa 0.0 l/m 2.0 km/h (1 Bft) O-SO 16.8 C 20.2 C
29.07.2001 23:00 19.6 C 84 % 1018.1 hPa 0.0 l/m 1.6 km/h (1 Bft) O-SO 16.8 C 19.6 C
Min-Datum _ 23.07.01 27.07.01 23.07.01 - 23.07.01 - 27.07.01 23.07.01
_ Min-Zeit 05:29 17:06 15:59 - 00:02 - 17:06 05:29
Minimum _ 11.6 C 28 % 1008.7 hPa - 0.0 km/h (0 Bft) - 9.7 C 11.6 C
Max-Datum _ 27.07.01 24.07.01 29.07.01 23.07.01 23.07.01 - 27.07.01 27.07.01
_ Max-Zeit 15:48 00:35 09:17 20:00 17:47 - 12:54 15:48
Maximum _ 31.0 C 97 % 1018.1 hPa 7.4 l/m 30.7 km/h
O-SO (5 Bft)
- 18.8 C 31.0 C
Durchschnitt _ 21.0 C 72 % 1012.7 hPa #13.9 l/m 2.2 km/h (1 Bft) O-SO 14.9 C 21.0 C

Durchschnitt Minimum Temp.20.1 C
Durchschnitt Maximum Temp.22.0 C
© Kaiko 2001